Amboy, Indiana
Current Conditions -  °F | °C
As of 8:55 AM on Monday 24 Nov 2014 (Local Time) from KOKK Reporting Station
Broken Clouds Broken Clouds  
Wind Chill: 55°   Ceiling: 2500
Heat Index: 55°   Visibility: 10mi
Dew Point: 50°   Wind: 30mph
Humidity: 82%   Direction: 230°SW
Pressure: 29.17"   Gusts: 40mph
Location:  40.6°N, 85.93°W
Report Text: KOKK 241355Z AUTO 23026G35KT 10SM SCT020 BKN025 BKN037 13/10 A2917 RMK AO1
Loading
Personal Weather Stations






























Interactive Weather Map New forecast layout! Learn more

10-Day Weather Forecast

Advertisements
Track Severe Weather on mobile